createdAt,value
2019-04-07T00:00:42.827Z,7.73
2019-04-07T00:03:10.542Z,7.63
2019-04-07T00:05:37.810Z,7.61
2019-04-07T00:08:04.817Z,7.59
2019-04-07T00:10:31.618Z,7.62
2019-04-07T00:12:58.423Z,7.85
2019-04-07T00:15:25.914Z,7.80
2019-04-07T00:17:54.305Z,7.69
2019-04-07T00:20:21.255Z,7.67
2019-04-07T00:22:49.001Z,7.71
2019-04-07T00:25:17.722Z,7.66
2019-04-07T00:27:44.414Z,7.43
2019-04-07T00:30:12.538Z,7.43
2019-04-07T00:32:39.249Z,7.61
2019-04-07T00:35:06.008Z,7.38
2019-04-07T00:37:33.704Z,7.40
2019-04-07T00:40:00.433Z,7.26
2019-04-07T00:42:27.533Z,7.27
2019-04-07T00:44:54.482Z,7.44
2019-04-07T00:47:21.781Z,7.17
2019-04-07T00:49:48.599Z,7.17
2019-04-07T00:52:17.315Z,7.18
2019-04-07T00:54:44.448Z,7.08
2019-04-07T00:57:11.023Z,7.07
2019-04-07T00:59:37.661Z,6.99
2019-04-07T01:02:04.427Z,7.04
2019-04-07T01:04:31.902Z,7.08
2019-04-07T01:06:59.152Z,7.10
2019-04-07T01:09:25.867Z,6.85
2019-04-07T01:11:52.448Z,6.84
2019-04-07T01:14:21.438Z,6.84
2019-04-07T01:16:48.991Z,6.86
2019-04-07T01:19:15.589Z,6.75
2019-04-07T01:21:42.357Z,6.81
2019-04-07T01:24:12.286Z,6.81
2019-04-07T01:26:39.644Z,6.72
2019-04-07T01:29:06.479Z,6.68
2019-04-07T01:31:33.367Z,6.65
2019-04-07T01:34:00.049Z,6.49
2019-04-07T01:36:28.337Z,6.60
2019-04-07T01:38:55.045Z,6.55
2019-04-07T01:41:51.056Z,6.67
2019-04-07T01:44:31.434Z,6.47
2019-04-07T01:50:28.589Z,6.59
2019-04-07T01:53:00.580Z,6.61
2019-04-07T01:55:52.881Z,6.60
2019-04-07T01:58:30.800Z,6.70
2019-04-07T02:01:23.100Z,6.82
2019-04-07T02:04:00.040Z,6.63
2019-04-07T02:06:36.554Z,6.66
2019-04-07T02:09:18.310Z,6.72
2019-04-07T02:12:03.508Z,6.43
2019-04-07T02:14:46.714Z,6.21
2019-04-07T02:17:20.995Z,6.32
2019-04-07T02:20:01.301Z,6.38
2019-04-07T02:22:39.315Z,6.39
2019-04-07T02:25:31.786Z,6.24
2019-04-07T02:28:07.527Z,6.28
2019-04-07T02:31:02.758Z,6.22
2019-04-07T02:33:39.333Z,6.31
2019-04-07T02:36:23.923Z,6.42
2019-04-07T02:39:02.939Z,6.13
2019-04-07T02:41:42.092Z,6.08
2019-04-07T02:44:27.818Z,6.07
2019-04-07T02:47:01.746Z,6.09
2019-04-07T02:49:39.289Z,5.97
2019-04-07T02:52:13.095Z,6.08
2019-04-07T02:54:55.851Z,5.68
2019-04-07T02:57:40.434Z,5.68
2019-04-07T03:00:22.363Z,5.73
2019-04-07T03:03:16.958Z,5.79
2019-04-07T03:05:54.287Z,5.99
2019-04-07T03:08:42.739Z,6.00
2019-04-07T03:11:42.825Z,5.99
2019-04-07T03:14:17.806Z,5.69
2019-04-07T03:16:59.970Z,5.85
2019-04-07T03:19:33.377Z,5.72
2019-04-07T03:22:20.598Z,5.64
2019-04-07T03:25:04.557Z,5.63
2019-04-07T03:27:53.589Z,5.63
2019-04-07T03:30:45.343Z,5.65
2019-04-07T03:33:31.881Z,5.69
2019-04-07T03:36:06.851Z,5.65
2019-04-07T03:38:48.135Z,5.58
2019-04-07T03:41:20.637Z,5.48
2019-04-07T03:43:54.990Z,5.55
2019-04-07T03:46:32.583Z,5.51
2019-04-07T03:49:11.297Z,5.70
2019-04-07T03:51:58.092Z,5.45
2019-04-07T03:54:43.413Z,5.31
2019-04-07T03:57:20.288Z,5.27
2019-04-07T04:00:06.623Z,5.20
2019-04-07T04:02:56.779Z,5.21
2019-04-07T04:05:34.809Z,5.16
2019-04-07T04:08:11.313Z,4.96
2019-04-07T04:10:45.400Z,4.82
2019-04-07T04:13:20.509Z,4.81
2019-04-07T04:15:57.092Z,4.64
2019-04-07T04:18:24.518Z,4.79
2019-04-07T04:20:52.875Z,4.84
2019-04-07T04:23:20.180Z,5.12
2019-04-07T04:25:47.068Z,4.93
2019-04-07T04:28:16.384Z,5.21
2019-04-07T04:30:44.114Z,5.33
2019-04-07T04:33:12.470Z,5.39
2019-04-07T04:35:39.164Z,5.26
2019-04-07T04:38:06.151Z,5.28
2019-04-07T04:40:33.196Z,5.10
2019-04-07T04:42:59.902Z,5.38
2019-04-07T04:45:27.525Z,5.17
2019-04-07T04:47:56.094Z,4.90
2019-04-07T04:50:23.704Z,4.71
2019-04-07T04:52:52.340Z,4.67
2019-04-07T04:55:20.418Z,4.67
2019-04-07T04:57:47.948Z,4.78
2019-04-07T05:00:15.835Z,5.04
2019-04-07T05:02:44.172Z,5.22
2019-04-07T05:05:11.209Z,5.28
2019-04-07T05:07:50.087Z,5.28
2019-04-07T05:10:07.997Z,5.30
2019-04-07T05:12:35.132Z,5.37
2019-04-07T05:15:01.964Z,5.43
2019-04-07T05:17:28.827Z,5.17
2019-04-07T05:19:55.520Z,5.26
2019-04-07T05:22:22.552Z,5.24
2019-04-07T05:24:50.559Z,5.24
2019-04-07T05:27:17.462Z,5.29
2019-04-07T05:29:44.691Z,5.33
2019-04-07T05:32:12.208Z,5.38
2019-04-07T05:34:42.328Z,5.29
2019-04-07T05:37:09.858Z,5.44
2019-04-07T05:39:37.216Z,5.44
2019-04-07T05:42:04.655Z,5.51
2019-04-07T05:44:32.016Z,5.59
2019-04-07T05:46:59.081Z,5.58
2019-04-07T05:49:25.833Z,5.69
2019-04-07T05:51:52.558Z,5.71
2019-04-07T05:54:20.769Z,5.82
2019-04-07T05:56:48.255Z,5.92
2019-04-07T05:59:15.656Z,6.15
2019-04-07T06:01:43.420Z,6.58
2019-04-07T06:04:14.355Z,7.12
2019-04-07T06:06:41.460Z,7.48
2019-04-07T06:09:08.053Z,7.74
2019-04-07T06:11:36.137Z,8.05
2019-04-07T06:14:03.191Z,8.34
2019-04-07T06:16:30.662Z,8.58
2019-04-07T06:18:57.763Z,8.92
2019-04-07T06:21:24.555Z,8.93
2019-04-07T06:23:59.404Z,9.11
2019-04-07T06:26:25.600Z,9.65
2019-04-07T06:28:57.385Z,9.70
2019-04-07T06:31:24.403Z,10.04
2019-04-07T06:33:49.974Z,10.49
2019-04-07T06:36:18.678Z,10.11
2019-04-07T06:38:51.238Z,10.65
2019-04-07T06:41:16.122Z,10.71
2019-04-07T06:43:47.967Z,10.88
2019-04-07T06:46:35.711Z,11.35
2019-04-07T06:49:38.101Z,11.62
2019-04-07T06:52:24.795Z,11.96
2019-04-07T06:55:00.562Z,12.42
2019-04-07T06:57:46.629Z,12.67
2019-04-07T07:00:36.511Z,12.33
2019-04-07T07:03:19.570Z,12.89
2019-04-07T07:06:08.544Z,13.26
2019-04-07T07:08:45.869Z,13.96
2019-04-07T07:11:30.028Z,13.69
2019-04-07T07:14:34.930Z,13.49
2019-04-07T07:17:16.966Z,14.30
2019-04-07T07:20:04.215Z,14.46
2019-04-07T07:22:45.982Z,13.76
2019-04-07T07:25:12.393Z,14.11
2019-04-07T07:27:41.594Z,13.71
2019-04-07T07:30:09.775Z,13.80
2019-04-07T07:32:37.399Z,14.41
2019-04-07T07:35:05.320Z,14.63
2019-04-07T07:37:33.363Z,14.33
2019-04-07T07:39:59.956Z,14.54
2019-04-07T07:42:26.811Z,15.10
2019-04-07T07:44:53.650Z,14.70
2019-04-07T07:47:22.535Z,14.88
2019-04-07T07:49:48.854Z,15.82
2019-04-07T07:52:18.558Z,16.11
2019-04-07T07:54:46.114Z,15.53
2019-04-07T07:57:13.375Z,15.33
2019-04-07T07:59:40.438Z,15.74
2019-04-07T08:02:07.583Z,16.13
2019-04-07T08:04:34.596Z,17.06
2019-04-07T08:07:02.598Z,16.51
2019-04-07T08:09:29.359Z,16.19
2019-04-07T08:11:56.153Z,16.44
2019-04-07T08:14:22.875Z,17.18
2019-04-07T08:16:52.391Z,18.44
2019-04-07T08:19:20.120Z,17.69
2019-04-07T08:21:50.322Z,17.85
2019-04-07T08:24:19.022Z,18.16
2019-04-07T08:26:45.939Z,19.12
2019-04-07T08:29:13.900Z,18.52
2019-04-07T08:31:41.030Z,18.57
2019-04-07T08:34:07.833Z,19.28
2019-04-07T08:36:34.857Z,20.08
2019-04-07T08:39:01.855Z,20.54
2019-04-07T08:41:30.126Z,22.58
2019-04-07T08:44:00.586Z,22.04
2019-04-07T08:46:32.283Z,21.79
2019-04-07T08:49:02.166Z,21.33
2019-04-07T08:51:31.663Z,23.79
2019-04-07T08:53:59.772Z,23.62
2019-04-07T08:56:26.898Z,24.13
2019-04-07T08:58:54.395Z,24.54
2019-04-07T09:01:21.846Z,23.95
2019-04-07T09:03:50.760Z,23.04
2019-04-07T09:06:17.419Z,23.10
2019-04-07T09:08:44.057Z,23.61
2019-04-07T09:11:13.180Z,24.89
2019-04-07T09:13:41.700Z,25.37
2019-04-07T09:16:28.025Z,25.74
2019-04-07T09:19:09.423Z,26.48
2019-04-07T09:21:50.246Z,24.34
2019-04-07T09:24:38.153Z,25.21
2019-04-07T09:27:23.571Z,25.86
2019-04-07T09:30:01.178Z,24.70
2019-04-07T09:32:57.846Z,25.88
2019-04-07T09:35:47.595Z,26.25
2019-04-07T09:38:33.396Z,26.17
2019-04-07T09:41:13.167Z,27.79
2019-04-07T09:44:05.620Z,27.83
2019-04-07T09:46:53.028Z,29.25
2019-04-07T09:49:56.620Z,28.03
2019-04-07T09:52:34.154Z,30.55
2019-04-07T09:55:16.695Z,28.58
2019-04-07T09:58:12.019Z,27.06
2019-04-07T10:00:46.615Z,27.85
2019-04-07T10:03:31.581Z,28.29
2019-04-07T10:06:18.925Z,25.91
2019-04-07T10:09:12.063Z,27.06
2019-04-07T10:12:00.414Z,27.49
2019-04-07T10:14:45.352Z,28.32
2019-04-07T10:17:30.042Z,28.21
2019-04-07T10:20:22.017Z,29.06
2019-04-07T10:22:58.684Z,28.61
2019-04-07T10:26:04.012Z,28.03
2019-04-07T10:28:51.470Z,28.59
2019-04-07T10:31:25.476Z,30.59
2019-04-07T10:34:06.154Z,30.27
2019-04-07T10:36:59.140Z,30.90
2019-04-07T10:39:49.752Z,27.95
2019-04-07T10:42:23.581Z,28.97
2019-04-07T10:44:58.743Z,28.17
2019-04-07T10:47:44.812Z,28.89
2019-04-07T10:50:43.852Z,31.38
2019-04-07T10:53:31.312Z,32.97
2019-04-07T10:56:04.473Z,30.66
2019-04-07T10:58:42.402Z,28.21
2019-04-07T11:01:22.924Z,28.77
2019-04-07T11:04:00.654Z,30.45
2019-04-07T11:07:06.450Z,29.01
2019-04-07T11:09:54.246Z,28.23
2019-04-07T11:12:39.836Z,31.10
2019-04-07T11:15:27.564Z,31.14
2019-04-07T11:18:17.494Z,29.11
2019-04-07T11:21:03.477Z,30.74
2019-04-07T11:23:39.197Z,30.59
2019-04-07T11:26:25.282Z,29.51
2019-04-07T11:29:08.521Z,29.22
2019-04-07T11:31:59.407Z,30.17
2019-04-07T11:35:04.911Z,28.48
2019-04-07T11:37:55.585Z,30.54
2019-04-07T11:40:52.201Z,30.75
2019-04-07T11:43:29.505Z,29.17
2019-04-07T11:46:18.762Z,29.52
2019-04-07T11:48:54.839Z,25.82
2019-04-07T11:51:29.228Z,25.99
2019-04-07T11:54:25.162Z,25.95
2019-04-07T11:57:15.387Z,26.18
2019-04-07T12:00:14.284Z,24.83
2019-04-07T12:02:54.473Z,25.05
2019-04-07T12:05:39.823Z,24.21
2019-04-07T12:08:18.572Z,23.94
2019-04-07T12:11:13.598Z,25.71
2019-04-07T12:13:59.757Z,25.33
2019-04-07T12:16:41.703Z,24.27
2019-04-07T12:19:22.810Z,25.18
2019-04-07T12:22:10.454Z,26.32
2019-04-07T12:25:00.732Z,26.42
2019-04-07T12:27:58.121Z,27.95
2019-04-07T12:30:48.808Z,27.46
2019-04-07T12:33:22.994Z,27.01
2019-04-07T12:35:59.085Z,27.14
2019-04-07T12:38:35.012Z,26.71
2019-04-07T12:41:23.026Z,28.43
2019-04-07T12:44:10.406Z,27.69
2019-04-07T12:46:50.983Z,27.73
2019-04-07T12:49:43.556Z,25.02
2019-04-07T12:52:17.375Z,24.84
2019-04-07T12:54:57.060Z,24.05
2019-04-07T12:57:30.933Z,24.67
2019-04-07T13:00:30.894Z,23.80
2019-04-07T13:03:08.814Z,23.57
2019-04-07T13:05:54.182Z,22.83
2019-04-07T13:08:40.704Z,21.20
2019-04-07T13:11:24.722Z,21.44
2019-04-07T13:14:03.767Z,21.69
2019-04-07T13:17:00.197Z,21.47
2019-04-07T13:19:43.814Z,21.83
2019-04-07T13:22:19.324Z,21.33
2019-04-07T13:25:14.329Z,20.82
2019-04-07T13:27:58.954Z,21.38
2019-04-07T13:30:50.024Z,21.78
2019-04-07T13:33:28.971Z,21.79
2019-04-07T13:36:22.556Z,20.95
2019-04-07T13:39:08.328Z,21.54
2019-04-07T13:41:55.721Z,21.69
2019-04-07T13:44:41.659Z,21.14
2019-04-07T13:47:28.752Z,21.05
2019-04-07T13:50:12.787Z,21.54
2019-04-07T13:53:05.627Z,21.49
2019-04-07T13:55:48.730Z,21.34
2019-04-07T13:58:35.708Z,21.02
2019-04-07T14:01:21.031Z,20.86
2019-04-07T14:04:16.723Z,20.95
2019-04-07T14:06:49.680Z,20.96
2019-04-07T14:09:35.362Z,20.94
2019-04-07T14:12:18.924Z,20.90
2019-04-07T14:15:00.215Z,20.38
2019-04-07T14:17:46.616Z,20.79
2019-04-07T14:20:24.463Z,20.90
2019-04-07T14:23:12.018Z,20.95
2019-04-07T14:25:47.061Z,20.56
2019-04-07T14:28:31.040Z,20.78
2019-04-07T14:31:07.639Z,20.85
2019-04-07T14:33:57.335Z,20.70
2019-04-07T14:36:39.205Z,20.44
2019-04-07T14:39:12.838Z,20.31
2019-04-07T14:42:04.604Z,19.72
2019-04-07T14:44:47.943Z,19.97
2019-04-07T14:47:41.427Z,19.62
2019-04-07T14:50:42.862Z,19.52
2019-04-07T14:53:45.398Z,19.90
2019-04-07T14:56:22.561Z,19.91
2019-04-07T14:58:58.561Z,19.61
2019-04-07T15:01:36.878Z,19.91
2019-04-07T15:04:05.143Z,19.71
2019-04-07T15:06:34.535Z,19.62
2019-04-07T15:09:10.185Z,19.78
2019-04-07T15:11:51.012Z,19.82
2019-04-07T15:14:18.092Z,19.74
2019-04-07T15:16:45.059Z,19.50
2019-04-07T15:19:11.704Z,19.52
2019-04-07T15:21:39.030Z,19.22
2019-04-07T15:24:07.217Z,19.10
2019-04-07T15:26:34.735Z,18.80
2019-04-07T15:29:04.679Z,18.78
2019-04-07T15:31:33.120Z,18.65
2019-04-07T15:34:06.362Z,18.52
2019-04-07T15:36:31.541Z,18.41
2019-04-07T15:38:59.547Z,18.27
2019-04-07T15:41:27.577Z,18.36
2019-04-07T15:43:55.266Z,18.39
2019-04-07T15:46:22.517Z,18.29
2019-04-07T15:48:49.858Z,18.20
2019-04-07T15:51:17.458Z,18.12
2019-04-07T15:53:49.768Z,18.01
2019-04-07T15:56:15.668Z,18.00
2019-04-07T15:58:41.952Z,18.00
2019-04-07T16:01:10.440Z,17.97
2019-04-07T16:03:38.793Z,17.79
2019-04-07T16:06:06.067Z,17.84
2019-04-07T16:08:33.726Z,18.13
2019-04-07T16:11:01.905Z,17.69
2019-04-07T16:13:29.238Z,17.50
2019-04-07T16:15:56.154Z,17.35
2019-04-07T16:18:23.253Z,17.33
2019-04-07T16:20:50.686Z,17.05
2019-04-07T16:23:19.267Z,17.14
2019-04-07T16:25:47.502Z,17.00
2019-04-07T16:28:16.033Z,16.87
2019-04-07T16:30:43.353Z,16.74
2019-04-07T16:33:10.082Z,16.73
2019-04-07T16:35:37.132Z,16.55
2019-04-07T16:38:05.211Z,16.57
2019-04-07T16:40:32.420Z,16.51
2019-04-07T16:43:09.552Z,16.29
2019-04-07T16:45:28.284Z,16.35
2019-04-07T16:47:55.059Z,16.16
2019-04-07T16:50:21.638Z,16.07
2019-04-07T16:52:48.528Z,15.96
2019-04-07T16:55:36.884Z,15.93
2019-04-07T16:58:04.573Z,15.83
2019-04-07T17:00:31.265Z,15.76
2019-04-07T17:02:57.753Z,15.75
2019-04-07T17:05:25.599Z,15.73
2019-04-07T17:07:54.827Z,15.64
2019-04-07T17:10:21.132Z,15.41
2019-04-07T17:12:49.589Z,15.34
2019-04-07T17:15:16.255Z,15.28
2019-04-07T17:17:43.462Z,15.17
2019-04-07T17:20:10.239Z,15.19
2019-04-07T17:22:38.209Z,15.03
2019-04-07T17:25:09.915Z,15.06
2019-04-07T17:27:40.885Z,15.07
2019-04-07T17:30:05.434Z,15.05
2019-04-07T17:32:35.829Z,14.80
2019-04-07T17:35:07.899Z,14.79
2019-04-07T17:37:37.856Z,14.70
2019-04-07T17:40:15.635Z,14.75
2019-04-07T17:42:50.769Z,14.74
2019-04-07T17:45:37.478Z,14.72
2019-04-07T17:48:23.342Z,14.50
2019-04-07T17:51:06.330Z,14.61
2019-04-07T17:53:49.585Z,14.44
2019-04-07T17:56:30.330Z,14.43
2019-04-07T17:59:22.071Z,14.11
2019-04-07T18:02:15.091Z,13.85
2019-04-07T18:05:04.441Z,14.11
2019-04-07T18:07:50.689Z,13.92
2019-04-07T18:10:29.487Z,13.71
2019-04-07T18:13:16.607Z,13.51
2019-04-07T18:16:01.692Z,13.46
2019-04-07T18:18:36.674Z,13.48
2019-04-07T18:21:13.407Z,13.31
2019-04-07T18:24:08.302Z,13.21
2019-04-07T18:26:53.675Z,13.21
2019-04-07T18:29:48.030Z,13.27
2019-04-07T18:32:43.113Z,13.05
2019-04-07T18:35:32.638Z,12.84
2019-04-07T18:38:17.386Z,12.92
2019-04-07T18:41:10.116Z,12.73
2019-04-07T18:43:57.818Z,12.53
2019-04-07T18:46:27.952Z,12.46
2019-04-07T18:49:18.035Z,12.58
2019-04-07T18:52:01.672Z,12.45
2019-04-07T18:54:39.934Z,12.45
2019-04-07T18:57:35.979Z,12.47
2019-04-07T19:00:42.319Z,12.51
2019-04-07T19:03:45.297Z,12.29
2019-04-07T19:06:31.259Z,12.18
2019-04-07T19:09:08.086Z,12.04
2019-04-07T19:11:47.229Z,11.80
2019-04-07T19:14:44.308Z,11.79
2019-04-07T19:17:27.267Z,11.76
2019-04-07T19:20:34.129Z,11.67
2019-04-07T19:23:18.465Z,11.94
2019-04-07T19:25:59.782Z,11.85
2019-04-07T19:28:49.762Z,11.71
2019-04-07T19:31:48.018Z,11.64
2019-04-07T19:34:32.812Z,11.52
2019-04-07T19:37:22.463Z,11.16
2019-04-07T19:40:04.341Z,11.07
2019-04-07T19:42:48.227Z,11.11
2019-04-07T19:45:32.994Z,11.09
2019-04-07T19:48:28.803Z,11.27
2019-04-07T19:51:14.288Z,11.16
2019-04-07T19:54:08.323Z,11.21
2019-04-07T19:56:42.444Z,11.03
2019-04-07T19:59:26.779Z,10.95
2019-04-07T20:02:13.433Z,10.89
2019-04-07T20:05:04.157Z,10.72
2019-04-07T20:07:50.824Z,10.76
2019-04-07T20:10:38.018Z,10.80
2019-04-07T20:13:20.000Z,10.68
2019-04-07T20:15:59.185Z,10.43
2019-04-07T20:18:37.400Z,10.37
2019-04-07T20:21:35.104Z,10.19
2019-04-07T20:24:11.275Z,10.12
2019-04-07T20:26:58.740Z,10.00
2019-04-07T20:29:44.762Z,10.04
2019-04-07T20:32:34.751Z,9.89
2019-04-07T20:35:19.713Z,9.57
2019-04-07T20:38:07.091Z,9.61
2019-04-07T20:40:59.919Z,9.70
2019-04-07T20:43:45.187Z,9.73
2019-04-07T20:46:23.800Z,9.70
2019-04-07T20:49:13.628Z,9.71
2019-04-07T20:52:16.995Z,9.59
2019-04-07T20:55:09.447Z,9.54
2019-04-07T20:58:14.608Z,9.78
2019-04-07T21:00:57.692Z,9.80
2019-04-07T21:03:45.075Z,9.85
2019-04-07T21:06:40.557Z,9.88
2019-04-07T21:09:21.562Z,10.03
2019-04-07T21:11:59.617Z,9.75
2019-04-07T21:14:45.348Z,9.54
2019-04-07T21:17:32.477Z,9.17
2019-04-07T21:20:15.575Z,9.14
2019-04-07T21:23:01.734Z,9.18
2019-04-07T21:25:43.346Z,9.14
2019-04-07T21:28:28.943Z,9.17
2019-04-07T21:31:03.412Z,9.44
2019-04-07T21:33:44.338Z,9.20
2019-04-07T21:36:30.071Z,9.05
2019-04-07T21:39:08.380Z,9.08
2019-04-07T21:42:00.497Z,8.91
2019-04-07T21:44:50.194Z,9.06
2019-04-07T21:47:58.002Z,9.24
2019-04-07T21:50:44.789Z,9.16
2019-04-07T21:53:41.035Z,9.04
2019-04-07T21:56:24.788Z,8.96
2019-04-07T21:59:07.745Z,9.04
2019-04-07T22:02:03.207Z,8.80
2019-04-07T22:04:50.626Z,8.77
2019-04-07T22:07:27.647Z,8.51
2019-04-07T22:09:58.847Z,8.37
2019-04-07T22:12:29.818Z,8.32
2019-04-07T22:14:56.289Z,8.56
2019-04-07T22:17:23.394Z,8.78
2019-04-07T22:19:50.212Z,8.52
2019-04-07T22:22:16.903Z,8.40
2019-04-07T22:24:44.835Z,8.35
2019-04-07T22:27:11.666Z,8.27
2019-04-07T22:29:38.372Z,8.32
2019-04-07T22:32:05.308Z,8.24
2019-04-07T22:34:33.781Z,8.24
2019-04-07T22:37:00.935Z,8.13
2019-04-07T22:39:29.795Z,8.14
2019-04-07T22:41:57.164Z,8.13
2019-04-07T22:44:24.761Z,8.14
2019-04-07T22:46:52.711Z,8.18
2019-04-07T22:49:19.839Z,8.00
2019-04-07T22:51:48.285Z,8.11
2019-04-07T22:54:16.726Z,7.93
2019-04-07T22:56:44.572Z,7.79
2019-04-07T22:59:12.794Z,7.86
2019-04-07T23:01:39.645Z,7.79
2019-04-07T23:04:07.105Z,8.00
2019-04-07T23:06:34.233Z,8.03
2019-04-07T23:09:01.550Z,8.18
2019-04-07T23:11:30.013Z,8.16
2019-04-07T23:13:56.747Z,8.11
2019-04-07T23:16:24.032Z,7.95
2019-04-07T23:18:52.080Z,7.89
2019-04-07T23:21:19.246Z,7.68
2019-04-07T23:23:46.233Z,7.50
2019-04-07T23:26:13.865Z,7.51
2019-04-07T23:28:40.577Z,7.37
2019-04-07T23:31:07.530Z,7.35
2019-04-07T23:33:34.780Z,7.17
2019-04-07T23:36:01.823Z,6.96
2019-04-07T23:38:28.943Z,6.96
2019-04-07T23:40:55.671Z,7.13
2019-04-07T23:43:22.440Z,7.33
2019-04-07T23:45:49.651Z,7.17
2019-04-07T23:48:17.984Z,7.12
2019-04-07T23:50:47.733Z,7.20
2019-04-07T23:53:50.807Z,6.90
2019-04-07T23:56:17.709Z,7.09
2019-04-07T23:58:45.559Z,6.95
